Time;durP1;ratioP1;P1;durP2;ratioP2;P2;SDS_P1;SDS_P2;PMS_P1;PMS_P2;Temp;Humidity;BMP_temperature;BMP_pressure;BME280_temperature;BME280_humidity;BME280_pressure;Samples;Min_cycle;Max_cycle;Signal;HPM_P1;HPM_P2
2023/08/30 00:01:49;;;;;;;1.13;0.88;;;13.20;99.90;;;;;;5043199;28;20053;-68
2023/08/30 00:04:14;;;;;;;2.20;1.10;;;13.10;99.90;;;;;;5042840;28;20451;-67
2023/08/30 00:06:40;;;;;;;1.33;1.23;;;13.00;99.90;;;;;;5076791;28;20071;-67
2023/08/30 00:09:05;;;;;;;0.80;0.50;;;13.00;99.90;;;;;;5044302;28;20051;-67
2023/08/30 00:11:32;;;;;;;1.33;0.68;;;13.00;99.90;;;;;;5044752;28;20438;-67
2023/08/30 00:14:14;;;;;;;0.68;0.55;;;13.00;99.90;;;;;;5043233;28;20031;-67
2023/08/30 00:16:39;;;;;;;1.35;0.85;;;13.10;99.90;;;;;;5058979;28;20045;-67
2023/08/30 00:19:05;;;;;;;1.88;1.00;;;13.10;99.90;;;;;;5040084;28;20525;-68
2023/08/30 00:21:31;;;;;;;20.48;1.48;;;13.10;99.90;;;;;;5044082;28;20047;-67
2023/08/30 00:23:56;;;;;;;0.75;0.75;;;13.00;99.90;;;;;;5025147;28;20040;-68
2023/08/30 00:26:22;;;;;;;0.55;0.55;;;13.10;99.90;;;;;;5043348;28;20049;-67
2023/08/30 00:28:49;;;;;;;0.70;0.63;;;13.00;99.90;;;;;;5041538;28;20499;-67
2023/08/30 00:31:15;;;;;;;0.65;0.65;;;13.00;99.90;;;;;;5074650;28;20033;-67
2023/08/30 00:33:41;;;;;;;0.68;0.30;;;13.00;99.90;;;;;;5054341;28;20049;-67
2023/08/30 00:36:08;;;;;;;1.17;1.00;;;12.90;99.90;;;;;;5039329;28;20048;-67
2023/08/30 00:38:35;;;;;;;0.63;0.50;;;12.90;99.90;;;;;;5043918;28;20056;-67
2023/08/30 00:41:04;;;;;;;1.58;0.80;;;12.90;99.90;;;;;;5073244;28;20048;-67
2023/08/30 00:43:29;;;;;;;0.30;0.30;;;12.80;99.90;;;;;;5043122;28;20032;-67
2023/08/30 00:45:56;;;;;;;0.30;0.30;;;12.80;99.90;;;;;;5041915;28;20468;-67
2023/08/30 00:48:22;;;;;;;0.50;0.50;;;12.80;99.90;;;;;;5040979;28;20051;-67
2023/08/30 00:50:48;;;;;;;2.15;0.85;;;12.80;99.90;;;;;;5039493;28;20121;-67
2023/08/30 00:53:14;;;;;;;0.28;0.28;;;12.80;99.90;;;;;;5038808;28;20387;-67
2023/08/30 00:55:42;;;;;;;1.30;0.82;;;12.80;99.90;;;;;;5040270;28;20048;-67
2023/08/30 00:58:09;;;;;;;1.45;0.63;;;12.80;99.90;;;;;;5037658;28;20522;-67
2023/08/30 01:00:34;;;;;;;0.70;0.65;;;12.80;99.90;;;;;;5041677;28;20122;-67
2023/08/30 01:03:01;;;;;;;0.52;0.52;;;12.80;99.90;;;;;;5068863;28;20131;-67
2023/08/30 01:05:29;;;;;;;1.08;1.00;;;12.80;99.90;;;;;;5056138;28;20040;-67
2023/08/30 01:07:56;;;;;;;0.88;0.88;;;12.80;99.90;;;;;;5074757;28;20041;-67
2023/08/30 01:10:31;;;;;;;0.65;0.35;;;12.80;99.90;;;;;;5040698;28;20049;-67
2023/08/30 01:13:05;;;;;;;1.08;0.40;;;12.80;99.90;;;;;;5040672;28;20048;-67
2023/08/30 01:15:32;;;;;;;0.60;0.60;;;12.80;99.90;;;;;;5041208;28;20068;-67
2023/08/30 01:17:59;;;;;;;1.75;0.47;;;12.80;99.90;;;;;;5041624;28;20965;-67
2023/08/30 01:20:27;;;;;;;0.63;0.50;;;12.70;99.90;;;;;;5041535;28;20392;-67
2023/08/30 01:23:02;;;;;;;0.20;0.20;;;12.80;99.90;;;;;;5072713;28;20724;-67
2023/08/30 01:26:13;;;;;;;0.40;0.40;;;12.70;99.90;;;;;;5038766;28;20400;-67
2023/08/30 01:28:39;;;;;;;0.98;0.55;;;12.80;99.90;;;;;;5071451;28;20491;-67
2023/08/30 01:31:08;;;;;;;0.30;0.30;;;12.80;99.90;;;;;;5040763;28;20129;-67
2023/08/30 01:33:35;;;;;;;0.43;0.22;;;12.80;99.90;;;;;;5070183;28;20044;-68
2023/08/30 01:36:01;;;;;;;0.20;0.20;;;12.80;99.90;;;;;;5039262;28;20306;-67
2023/08/30 01:38:29;;;;;;;0.30;0.30;;;12.80;99.90;;;;;;5040322;28;20123;-67
2023/08/30 01:40:56;;;;;;;0.47;0.30;;;12.80;99.90;;;;;;5054418;28;20045;-67
2023/08/30 01:43:23;;;;;;;0.80;0.50;;;12.80;99.90;;;;;;5056449;28;20041;-67
2023/08/30 01:45:48;;;;;;;0.17;0.13;;;12.80;99.90;;;;;;5044036;28;20080;-67
2023/08/30 01:48:17;;;;;;;0.63;0.45;;;12.80;99.90;;;;;;5055672;28;20445;-67
2023/08/30 01:50:44;;;;;;;0.80;0.70;;;12.80;99.90;;;;;;5073655;28;20492;-67
2023/08/30 01:53:12;;;;;;;0.32;0.17;;;12.90;99.90;;;;;;5041100;28;20045;-67
2023/08/30 01:55:39;;;;;;;0.80;0.60;;;12.90;99.90;;;;;;5039848;28;20059;-67
2023/08/30 01:58:06;;;;;;;0.30;0.30;;;12.90;99.90;;;;;;5037978;28;20045;-67
2023/08/30 02:00:32;;;;;;;3.83;1.77;;;12.90;99.90;;;;;;5040067;28;20057;-67
2023/08/30 02:02:57;;;;;;;0.85;0.13;;;12.90;99.90;;;;;;5043827;28;20178;-68
2023/08/30 02:05:23;;;;;;;1.05;0.60;;;13.00;99.90;;;;;;5047216;28;20064;-67
2023/08/30 02:08:05;;;;;;;0.40;0.20;;;12.90;99.90;;;;;;5043524;28;20045;-67
2023/08/30 02:10:35;;;;;;;0.10;0.10;;;12.90;99.90;;;;;;5042715;28;20033;-67
2023/08/30 02:13:02;;;;;;;0.95;0.85;;;13.00;99.90;;;;;;5040005;28;20036;-67
2023/08/30 02:15:31;;;;;;;2.50;0.52;;;13.00;99.90;;;;;;5037100;28;20091;-67
2023/08/30 02:17:57;;;;;;;0.10;0.00;;;13.00;99.90;;;;;;5037363;28;20456;-68
2023/08/30 02:20:23;;;;;;;0.43;0.30;;;13.00;99.90;;;;;;5042234;28;20076;-67
2023/08/30 02:22:49;;;;;;;0.25;0.25;;;13.00;99.90;;;;;;5041629;28;20087;-67
2023/08/30 02:25:15;;;;;;;0.20;0.20;;;13.00;99.90;;;;;;5038857;28;20033;-67
2023/08/30 02:27:40;;;;;;;0.10;0.10;;;12.90;99.90;;;;;;5039458;28;20114;-67
2023/08/30 02:30:06;;;;;;;0.70;0.70;;;12.90;99.90;;;;;;5040563;28;20742;-67
2023/08/30 02:32:32;;;;;;;0.63;0.47;;;12.90;99.90;;;;;;5040672;28;20064;-67
2023/08/30 02:34:58;;;;;;;0.40;0.40;;;12.80;99.90;;;;;;5041760;28;20115;-67
2023/08/30 02:37:24;;;;;;;0.35;0.35;;;12.80;99.90;;;;;;5039799;28;20047;-67
2023/08/30 02:39:49;;;;;;;2.08;0.45;;;12.80;99.90;;;;;;5026246;28;20052;-67
2023/08/30 02:42:15;;;;;;;0.20;0.20;;;12.70;99.90;;;;;;5038422;28;20037;-67
2023/08/30 02:44:40;;;;;;;0.45;0.45;;;12.70;99.90;;;;;;5041217;28;20045;-67
2023/08/30 02:47:07;;;;;;;0.40;0.40;;;12.70;99.90;;;;;;5039951;28;20068;-67
2023/08/30 02:49:32;;;;;;;1.45;0.30;;;12.70;99.90;;;;;;5041911;28;20044;-67
2023/08/30 02:51:58;;;;;;;1.35;0.80;;;12.60;99.90;;;;;;5041791;28;20045;-68
2023/08/30 02:54:24;;;;;;;0.73;0.30;;;12.60;99.90;;;;;;5039850;28;20098;-67
2023/08/30 02:56:50;;;;;;;0.55;0.55;;;12.60;99.90;;;;;;5037745;28;20400;-67
2023/08/30 02:59:15;;;;;;;0.35;0.30;;;12.50;99.90;;;;;;5041677;28;20133;-67
2023/08/30 03:01:41;;;;;;;0.85;0.70;;;12.50;99.90;;;;;;5040788;28;20132;-67
2023/08/30 03:04:07;;;;;;;0.35;0.35;;;12.50;99.90;;;;;;5040137;28;20056;-67
2023/08/30 03:06:34;;;;;;;0.10;0.10;;;12.50;99.90;;;;;;5038162;28;20045;-67
2023/08/30 03:09:00;;;;;;;1.42;0.50;;;12.50;99.90;;;;;;5041609;28;20476;-67
2023/08/30 03:11:26;;;;;;;0.55;0.55;;;12.50;99.90;;;;;;5042533;28;20341;-67
2023/08/30 03:13:53;;;;;;;0.47;0.47;;;12.50;99.90;;;;;;5039510;28;20036;-67
2023/08/30 03:16:19;;;;;;;1.00;1.00;;;12.50;99.90;;;;;;5037708;28;20029;-67
2023/08/30 03:18:45;;;;;;;0.30;0.30;;;12.50;99.90;;;;;;5040972;28;20087;-68
2023/08/30 03:21:12;;;;;;;0.10;0.10;;;12.50;99.90;;;;;;5042511;28;20788;-67
2023/08/30 03:23:38;;;;;;;0.68;0.30;;;12.50;99.90;;;;;;5040982;28;20033;-67
2023/08/30 03:26:22;;;;;;;1.83;0.70;;;12.50;99.90;;;;;;5040718;28;20044;-67
2023/08/30 03:28:48;;;;;;;0.13;0.13;;;12.50;99.90;;;;;;5037531;28;20098;-67
2023/08/30 03:31:17;;;;;;;0.13;0.13;;;12.50;99.90;;;;;;5043025;28;20476;-67
2023/08/30 03:33:43;;;;;;;1.10;0.52;;;12.50;99.90;;;;;;5039453;28;20056;-67
2023/08/30 03:36:14;;;;;;;0.22;0.22;;;12.60;99.90;;;;;;5023077;28;20391;-67
2023/08/30 03:38:40;;;;;;;0.63;0.40;;;12.50;99.90;;;;;;5051883;28;20045;-67
2023/08/30 03:41:06;;;;;;;0.68;0.68;;;12.60;99.90;;;;;;5069203;28;20048;-67
2023/08/30 03:43:32;;;;;;;0.60;0.32;;;12.60;99.90;;;;;;5037670;28;20036;-68
2023/08/30 03:46:00;;;;;;;0.93;0.93;;;12.60;99.90;;;;;;5038485;28;20044;-67
2023/08/30 03:48:26;;;;;;;2.38;1.45;;;12.60;99.90;;;;;;5038567;28;20051;-67
2023/08/30 03:50:52;;;;;;;0.80;0.57;;;12.60;99.90;;;;;;5070703;28;20040;-67
2023/08/30 03:53:18;;;;;;;0.03;0.03;;;12.60;99.90;;;;;;5037265;28;20033;-67
2023/08/30 03:55:43;;;;;;;0.30;0.30;;;12.60;99.90;;;;;;5039869;28;20156;-67
2023/08/30 03:58:09;;;;;;;0.98;0.47;;;12.70;99.90;;;;;;5035775;28;20045;-68
2023/08/30 04:00:39;;;;;;;0.40;0.40;;;12.70;99.90;;;;;;5033593;28;20053;-67
2023/08/30 04:03:09;;;;;;;0.15;0.15;;;12.70;99.90;;;;;;5037192;28;20124;-67
2023/08/30 04:05:35;;;;;;;0.30;0.30;;;12.60;99.90;;;;;;5037147;28;20083;-67
2023/08/30 04:08:05;;;;;;;1.05;0.70;;;12.70;99.90;;;;;;5035717;28;20037;-67
2023/08/30 04:10:41;;;;;;;0.10;0.10;;;12.70;99.90;;;;;;5073126;28;20045;-67
2023/08/30 04:13:08;;;;;;;0.40;0.40;;;12.70;99.90;;;;;;5038833;28;20114;-67
2023/08/30 04:15:38;;;;;;;0.10;0.10;;;12.70;99.90;;;;;;5041387;28;20040;-67
2023/08/30 04:18:05;;;;;;;0.43;0.43;;;12.70;99.90;;;;;;5020588;28;20044;-67
2023/08/30 04:20:32;;;;;;;1.20;1.10;;;12.80;99.90;;;;;;5039585;28;20033;-68
2023/08/30 04:22:58;;;;;;;1.25;1.15;;;12.80;99.90;;;;;;5039427;28;20048;-67
2023/08/30 04:25:24;;;;;;;0.17;0.17;;;12.80;99.90;;;;;;5041393;28;20048;-67
2023/08/30 04:27:50;;;;;;;0.55;0.47;;;12.80;99.90;;;;;;5037899;28;20572;-67
2023/08/30 04:30:16;;;;;;;0.10;0.10;;;12.80;99.90;;;;;;5041014;28;20055;-67
2023/08/30 04:32:42;;;;;;;1.17;1.17;;;12.80;99.90;;;;;;5039269;28;20091;-67
2023/08/30 04:35:08;;;;;;;0.15;0.15;;;12.90;99.90;;;;;;5039994;28;20484;-67
2023/08/30 04:37:33;;;;;;;0.93;0.70;;;12.90;99.90;;;;;;5039668;28;20144;-67
2023/08/30 04:39:59;;;;;;;0.17;0.17;;;12.90;99.90;;;;;;5039905;28;20162;-67
2023/08/30 04:42:24;;;;;;;0.20;0.20;;;12.90;99.90;;;;;;5035253;28;20056;-67
2023/08/30 04:44:52;;;;;;;0.20;0.10;;;12.90;99.90;;;;;;5040891;28;20060;-67
2023/08/30 04:47:17;;;;;;;0.45;0.45;;;12.90;99.90;;;;;;5038590;28;20087;-67
2023/08/30 04:49:43;;;;;;;0.60;0.60;;;12.90;99.90;;;;;;5038773;28;20139;-67
2023/08/30 04:52:08;;;;;;;0.35;0.32;;;12.90;99.90;;;;;;5037638;28;20065;-67
2023/08/30 04:54:34;;;;;;;1.95;0.50;;;12.90;99.90;;;;;;5039130;28;20368;-67
2023/08/30 04:56:59;;;;;;;0.28;0.20;;;12.90;99.90;;;;;;5038355;28;20476;-67
2023/08/30 04:59:25;;;;;;;0.25;0.20;;;13.00;99.90;;;;;;5040955;28;20040;-67
2023/08/30 05:01:51;;;;;;;0.28;0.28;;;12.90;99.90;;;;;;5036295;28;20087;-68
2023/08/30 05:04:17;;;;;;;0.55;0.50;;;13.00;99.90;;;;;;5070549;28;20053;-67
2023/08/30 05:06:43;;;;;;;0.57;0.57;;;13.00;99.90;;;;;;5035625;28;20418;-67
2023/08/30 05:09:09;;;;;;;0.10;0.10;;;13.00;99.90;;;;;;5039599;28;20033;-67
2023/08/30 05:11:34;;;;;;;0.85;0.73;;;13.00;99.90;;;;;;5039801;28;20438;-67
2023/08/30 05:14:02;;;;;;;0.22;0.22;;;13.00;99.90;;;;;;5039226;28;20045;-67
2023/08/30 05:16:28;;;;;;;0.30;0.30;;;13.00;99.90;;;;;;5038240;28;20445;-67
2023/08/30 05:18:53;;;;;;;0.43;0.43;;;13.00;99.90;;;;;;5034542;28;20079;-68
2023/08/30 05:21:19;;;;;;;0.65;0.63;;;13.00;99.90;;;;;;5037117;28;20052;-68
2023/08/30 05:23:46;;;;;;;0.63;0.60;;;13.00;99.90;;;;;;5019857;28;20061;-67
2023/08/30 05:26:16;;;;;;;2.22;0.43;;;13.10;99.90;;;;;;5036077;28;20140;-67
2023/08/30 05:28:42;;;;;;;1.15;0.30;;;13.10;99.90;;;;;;5040054;28;20553;-68
2023/08/30 05:31:07;;;;;;;0.28;0.28;;;13.10;99.90;;;;;;5021795;28;20033;-67
2023/08/30 05:36:56;;;;;;;0.68;0.50;;;13.10;99.90;;;;;;5071461;28;20138;-68
2023/08/30 05:39:22;;;;;;;0.63;0.63;;;13.10;99.90;;;;;;5044898;28;20045;-68
2023/08/30 05:41:47;;;;;;;1.33;1.23;;;13.10;99.90;;;;;;5045715;28;20040;-68
2023/08/30 05:47:35;;;;;;;3.20;0.32;;;13.20;99.90;;;;;;5042139;28;20051;-68
2023/08/30 05:50:00;;;;;;;1.85;0.77;;;13.30;99.90;;;;;;5049510;28;20044;-67
2023/08/30 05:52:26;;;;;;;0.73;0.70;;;13.40;99.90;;;;;;5044240;28;20138;-67
2023/08/30 05:54:51;;;;;;;0.10;0.10;;;13.30;99.90;;;;;;5074967;28;20036;-68
2023/08/30 05:57:17;;;;;;;1.42;0.45;;;13.40;99.90;;;;;;5042442;28;20048;-68
2023/08/30 05:59:42;;;;;;;0.82;0.45;;;13.40;99.90;;;;;;5046618;28;20041;-68
2023/08/30 06:02:08;;;;;;;2.35;0.63;;;13.40;99.90;;;;;;5043529;28;20036;-67
2023/08/30 06:04:34;;;;;;;1.75;0.55;;;13.50;99.90;;;;;;5044926;28;20049;-68
2023/08/30 06:07:00;;;;;;;0.20;0.10;;;13.50;99.90;;;;;;5043176;28;20040;-68
2023/08/30 06:09:26;;;;;;;1.25;0.20;;;13.60;99.90;;;;;;5044357;28;20048;-68
2023/08/30 06:11:51;;;;;;;0.45;0.30;;;13.60;99.90;;;;;;5044052;28;20554;-68
2023/08/30 06:14:17;;;;;;;0.50;0.50;;;13.60;99.90;;;;;;5048262;28;20071;-68
2023/08/30 06:16:44;;;;;;;0.10;0.10;;;13.70;99.90;;;;;;5043288;28;20124;-68
2023/08/30 06:19:10;;;;;;;0.57;0.57;;;13.70;99.90;;;;;;5045482;28;20084;-69
2023/08/30 06:21:36;;;;;;;0.57;0.57;;;13.70;99.90;;;;;;5045612;28;20053;-68
2023/08/30 06:24:02;;;;;;;0.20;0.10;;;13.80;99.90;;;;;;5045989;28;20087;-68
2023/08/30 06:26:27;;;;;;;0.90;0.22;;;13.80;99.90;;;;;;5040203;28;20043;-68
2023/08/30 06:28:53;;;;;;;0.20;0.20;;;13.80;99.90;;;;;;5041955;28;20041;-68
2023/08/30 06:31:18;;;;;;;0.52;0.30;;;13.90;99.90;;;;;;5046907;28;20039;-68
2023/08/30 06:33:44;;;;;;;3.03;0.20;;;13.90;99.90;;;;;;5039736;28;20041;-68
2023/08/30 06:36:11;;;;;;;0.30;0.30;;;13.90;99.90;;;;;;5043594;28;20484;-68
2023/08/30 06:38:37;;;;;;;2.80;0.40;;;14.00;99.90;;;;;;5042750;28;20823;-68
2023/08/30 06:41:02;;;;;;;0.63;0.55;;;14.00;99.90;;;;;;5043220;28;20132;-68
2023/08/30 06:43:28;;;;;;;0.43;0.20;;;14.00;99.90;;;;;;5045051;28;20222;-67
2023/08/30 06:45:57;;;;;;;0.47;0.20;;;14.00;99.90;;;;;;5048393;28;20041;-67
2023/08/30 06:48:22;;;;;;;1.23;0.43;;;14.00;99.90;;;;;;5077164;28;20048;-68
2023/08/30 06:50:48;;;;;;;0.80;0.80;;;14.00;99.90;;;;;;5047291;28;20041;-68
2023/08/30 06:53:13;;;;;;;0.35;0.35;;;14.00;99.90;;;;;;5038251;28;20756;-68
2023/08/30 06:55:39;;;;;;;1.45;0.30;;;14.10;99.90;;;;;;5043392;28;20051;-68
2023/08/30 06:58:05;;;;;;;0.28;0.28;;;14.10;99.90;;;;;;5044208;28;20075;-68
2023/08/30 07:00:32;;;;;;;0.70;0.68;;;14.10;99.90;;;;;;5046966;28;20484;-68
2023/08/30 07:02:58;;;;;;;0.40;0.40;;;14.20;99.90;;;;;;5074661;28;20797;-68
2023/08/30 07:05:23;;;;;;;0.98;0.80;;;14.20;99.90;;;;;;5044756;28;20044;-68
2023/08/30 07:07:49;;;;;;;0.15;0.15;;;14.20;99.90;;;;;;5037274;28;20033;-68
2023/08/30 07:10:15;;;;;;;0.32;0.28;;;14.20;99.90;;;;;;5047833;28;20041;-68
2023/08/30 07:12:40;;;;;;;0.65;0.65;;;14.30;99.90;;;;;;5042218;28;20073;-68
2023/08/30 07:15:06;;;;;;;1.10;0.50;;;14.40;99.90;;;;;;5045510;28;20045;-68
2023/08/30 07:17:32;;;;;;;0.52;0.40;;;14.50;99.90;;;;;;5045354;28;20041;-68
2023/08/30 07:19:57;;;;;;;1.17;0.52;;;14.60;99.90;;;;;;5043008;28;20045;-68
2023/08/30 07:22:23;;;;;;;2.47;0.93;;;14.70;99.90;;;;;;5042886;28;20403;-68
2023/08/30 07:24:51;;;;;;;1.10;0.40;;;14.80;99.90;;;;;;5029316;28;20071;-68
2023/08/30 07:27:16;;;;;;;1.63;1.35;;;14.90;99.90;;;;;;5042145;28;20483;-69
2023/08/30 07:29:43;;;;;;;0.63;0.63;;;15.00;99.90;;;;;;5038664;28;20041;-68
2023/08/30 07:32:09;;;;;;;0.20;0.20;;;15.10;99.90;;;;;;5069242;28;20412;-67
2023/08/30 07:34:35;;;;;;;0.60;0.60;;;15.20;99.90;;;;;;5038994;28;20044;-67
2023/08/30 07:37:01;;;;;;;0.25;0.20;;;15.30;99.90;;;;;;5034244;28;20578;-68
2023/08/30 07:39:26;;;;;;;0.52;0.52;;;15.30;99.90;;;;;;5071638;28;20032;-67
2023/08/30 07:41:52;;;;;;;2.80;1.70;;;15.40;99.90;;;;;;5041489;28;20392;-67
2023/08/30 07:44:19;;;;;;;2.72;1.13;;;15.30;99.90;;;;;;5043932;28;20059;-67
2023/08/30 07:46:45;;;;;;;1.10;0.40;;;15.30;99.90;;;;;;5041191;28;20056;-67
2023/08/30 07:49:10;;;;;;;0.52;0.52;;;15.20;99.90;;;;;;5041278;28;20055;-67
2023/08/30 07:51:36;;;;;;;0.50;0.50;;;15.30;99.90;;;;;;5058377;28;20029;-68
2023/08/30 07:54:01;;;;;;;0.80;0.57;;;15.20;99.90;;;;;;5044070;28;20037;-67
2023/08/30 07:56:28;;;;;;;2.17;1.10;;;15.30;99.90;;;;;;5043469;28;20317;-67
2023/08/30 07:58:54;;;;;;;0.28;0.28;;;15.30;99.90;;;;;;5042822;28;20415;-67
2023/08/30 08:01:20;;;;;;;4.03;0.70;;;15.30;99.90;;;;;;5042399;28;20052;-68
2023/08/30 08:03:45;;;;;;;0.68;0.60;;;15.30;99.90;;;;;;5039560;28;20048;-67
2023/08/30 08:06:11;;;;;;;1.35;0.88;;;15.30;99.90;;;;;;5042597;28;20732;-68
2023/08/30 08:08:36;;;;;;;0.68;0.65;;;15.20;99.90;;;;;;5038370;28;20043;-67
2023/08/30 08:11:03;;;;;;;1.83;0.50;;;15.30;99.90;;;;;;5042531;28;20041;-67
2023/08/30 08:13:29;;;;;;;1.38;0.63;;;15.20;99.90;;;;;;5039603;28;20472;-67
2023/08/30 08:15:57;;;;;;;0.57;0.43;;;15.20;99.90;;;;;;5040683;28;20222;-68
2023/08/30 08:18:24;;;;;;;1.85;1.13;;;15.20;99.90;;;;;;5039056;28;20072;-68
2023/08/30 08:20:50;;;;;;;2.22;0.60;;;15.20;99.90;;;;;;5053767;28;20041;-68
2023/08/30 08:23:17;;;;;;;2.15;0.93;;;15.20;99.90;;;;;;5039897;28;20049;-67
2023/08/30 08:25:43;;;;;;;0.73;0.73;;;15.20;99.90;;;;;;5041061;28;20070;-68
2023/08/30 08:28:08;;;;;;;0.77;0.68;;;15.20;99.90;;;;;;5040571;28;20496;-67
2023/08/30 08:30:35;;;;;;;0.45;0.43;;;15.20;99.90;;;;;;5044063;28;20045;-68
2023/08/30 08:33:01;;;;;;;1.60;0.82;;;15.10;99.90;;;;;;5037067;28;20475;-67
2023/08/30 08:35:26;;;;;;;0.57;0.57;;;15.00;99.90;;;;;;5043562;28;20048;-67
2023/08/30 08:37:52;;;;;;;0.50;0.50;;;15.00;99.90;;;;;;5036755;28;20055;-67
2023/08/30 08:40:17;;;;;;;0.82;0.73;;;15.00;99.90;;;;;;5041482;28;20070;-68
2023/08/30 08:42:44;;;;;;;0.63;0.55;;;14.90;99.90;;;;;;5038902;28;20415;-67
2023/08/30 08:45:11;;;;;;;0.82;0.82;;;14.80;99.90;;;;;;5059854;28;20045;-67
2023/08/30 08:47:38;;;;;;;0.65;0.50;;;14.80;99.90;;;;;;5040765;28;20041;-67
2023/08/30 08:50:04;;;;;;;1.13;0.40;;;14.70;99.90;;;;;;5070916;28;20037;-67
2023/08/30 08:52:30;;;;;;;0.40;0.40;;;14.60;99.90;;;;;;5038876;28;20055;-66
2023/08/30 08:54:56;;;;;;;1.30;0.10;;;14.60;99.90;;;;;;5042361;28;20043;-67
2023/08/30 08:57:22;;;;;;;2.42;0.75;;;14.50;99.90;;;;;;5042197;28;20472;-67
2023/08/30 09:03:21;;;;;;;0.45;0.45;;;14.40;99.90;;;;;;5043765;28;20048;-68
2023/08/30 09:05:48;;;;;;;7.28;1.40;;;14.30;99.90;;;;;;5045953;28;20124;-68
2023/08/30 09:08:15;;;;;;;2.05;0.80;;;14.30;99.90;;;;;;5045718;28;20044;-67
2023/08/30 09:10:41;;;;;;;3.30;0.63;;;14.20;99.90;;;;;;5045618;28;20052;-67
2023/08/30 09:13:06;;;;;;;0.55;0.43;;;14.20;99.90;;;;;;5049297;28;20111;-67
2023/08/30 09:15:33;;;;;;;1.45;0.63;;;14.20;99.90;;;;;;5049633;28;20094;-68
2023/08/30 09:17:59;;;;;;;0.28;0.28;;;14.20;99.90;;;;;;5043669;28;20093;-69
2023/08/30 09:20:24;;;;;;;1.73;0.32;;;14.20;99.90;;;;;;5028951;28;20048;-69
2023/08/30 09:22:50;;;;;;;0.77;0.73;;;14.30;99.90;;;;;;5046000;28;20048;-70
2023/08/30 09:25:27;;;;;;;2.10;0.73;;;14.20;99.90;;;;;;5048703;28;20118;-71
2023/08/30 09:27:59;;;;;;;0.63;0.63;;;14.30;99.90;;;;;;5050057;28;20584;-70
2023/08/30 09:30:25;;;;;;;;;;;14.30;99.90;;;;;;5055079;28;20452;-69
2023/08/30 09:32:51;;;;;;;3.20;0.60;;;14.30;99.90;;;;;;5043916;28;19920;-69
2023/08/30 09:35:16;;;;;;;1.77;0.90;;;14.40;99.90;;;;;;5047882;28;20048;-70
2023/08/30 09:37:45;;;;;;;1.75;0.55;;;14.50;99.90;;;;;;5047571;28;20071;-70
2023/08/30 09:40:11;;;;;;;0.08;0.08;;;14.60;99.90;;;;;;5050597;28;20116;-70
2023/08/30 09:42:42;;;;;;;1.00;0.45;;;14.70;99.90;;;;;;5050933;28;20132;-70
2023/08/30 09:45:18;;;;;;;0.32;0.30;;;14.90;99.90;;;;;;5053730;28;20053;-70
2023/08/30 09:47:47;;;;;;;1.13;0.95;;;15.00;99.90;;;;;;5052506;28;20407;-70
2023/08/30 09:50:17;;;;;;;0.22;0.22;;;15.10;99.90;;;;;;5048476;28;20122;-71
2023/08/30 09:52:43;;;;;;;1.77;0.60;;;15.30;99.90;;;;;;5049184;28;20045;-71
2023/08/30 09:55:09;;;;;;;1.25;0.30;;;15.30;99.90;;;;;;5054538;28;20036;-71
2023/08/30 09:57:36;;;;;;;2.33;0.55;;;15.40;99.90;;;;;;5052240;28;20033;-70
2023/08/30 10:00:03;;;;;;;1.40;0.52;;;15.50;99.90;;;;;;5049993;28;20055;-70
2023/08/30 10:02:31;;;;;;;0.55;0.30;;;15.50;99.90;;;;;;5051635;28;20052;-71
2023/08/30 10:04:58;;;;;;;0.45;0.32;;;15.60;99.90;;;;;;5048343;28;20056;-70
2023/08/30 10:07:24;;;;;;;0.30;0.30;;;15.60;99.90;;;;;;5048641;28;20060;-70
2023/08/30 10:09:52;;;;;;;1.25;0.73;;;15.60;99.90;;;;;;5049359;28;20051;-70
2023/08/30 10:12:21;;;;;;;0.45;0.45;;;15.60;99.90;;;;;;5049501;28;20033;-70
2023/08/30 10:14:47;;;;;;;1.08;0.98;;;15.60;99.90;;;;;;5050237;28;20388;-70
2023/08/30 10:17:17;;;;;;;0.85;0.38;;;15.50;99.90;;;;;;5050831;28;20043;-70
2023/08/30 10:19:45;;;;;;;0.47;0.20;;;15.40;99.90;;;;;;5053085;28;20676;-69
2023/08/30 10:22:17;;;;;;;0.65;0.40;;;15.40;99.90;;;;;;5053648;28;20045;-70
2023/08/30 10:24:47;;;;;;;0.50;0.43;;;15.30;99.90;;;;;;5047832;28;20056;-70
2023/08/30 10:27:14;;;;;;;1.13;0.43;;;15.20;99.90;;;;;;5085106;28;20423;-70
2023/08/30 10:29:41;;;;;;;1.27;0.52;;;15.10;99.90;;;;;;5047620;28;20041;-70
2023/08/30 10:32:07;;;;;;;0.38;0.38;;;15.10;99.90;;;;;;5048263;28;20044;-70
2023/08/30 10:34:34;;;;;;;1.05;0.65;;;15.00;99.90;;;;;;5050801;28;20145;-69
2023/08/30 10:37:01;;;;;;;0.98;0.98;;;15.00;99.90;;;;;;5050189;28;20069;-70
2023/08/30 10:39:37;;;;;;;0.93;0.93;;;15.00;99.90;;;;;;5063683;28;20521;-70
2023/08/30 10:42:10;;;;;;;0.55;0.30;;;15.00;99.90;;;;;;5049981;28;20099;-69
2023/08/30 10:44:50;;;;;;;0.57;0.38;;;14.90;99.90;;;;;;5042935;28;20178;-69
2023/08/30 10:47:25;;;;;;;0.13;0.13;;;14.90;99.90;;;;;;5043809;28;20127;-69
2023/08/30 10:49:54;;;;;;;0.70;0.57;;;14.90;99.90;;;;;;5042035;28;20067;-69
2023/08/30 10:52:20;;;;;;;0.20;0.20;;;14.90;99.90;;;;;;5049946;28;20052;-69
2023/08/30 10:54:46;;;;;;;0.70;0.40;;;14.90;99.90;;;;;;5048503;28;20043;-69
2023/08/30 10:57:25;;;;;;;0.65;0.65;;;14.80;99.90;;;;;;5046452;28;20037;-69
2023/08/30 11:00:17;;;;;;;0.20;0.20;;;14.80;99.90;;;;;;5047681;28;20047;-69
2023/08/30 11:02:44;;;;;;;;;;;14.80;99.90;;;;;;5042058;28;20110;-69
2023/08/30 11:05:10;;;;;;;0.15;0.13;;;14.80;99.90;;;;;;5047165;28;19924;-69
2023/08/30 11:07:36;;;;;;;0.35;0.35;;;14.80;99.90;;;;;;5049215;28;20048;-69
2023/08/30 11:10:07;;;;;;;0.52;0.47;;;14.80;99.90;;;;;;5048006;28;20044;-69
2023/08/30 11:12:50;;;;;;;0.40;0.40;;;14.80;99.90;;;;;;5042098;28;20072;-69
2023/08/30 11:15:16;;;;;;;3.15;0.50;;;14.80;99.90;;;;;;5044448;28;20120;-69
2023/08/30 11:17:42;;;;;;;0.22;0.22;;;14.80;99.90;;;;;;5044837;28;20132;-69
2023/08/30 11:20:10;;;;;;;0.57;0.57;;;14.80;99.90;;;;;;5042426;28;21229;-70
2023/08/30 11:22:46;;;;;;;0.30;0.10;;;14.80;99.90;;;;;;5043914;28;20047;-69
2023/08/30 11:25:14;;;;;;;0.95;0.85;;;14.80;99.90;;;;;;5047215;28;20040;-69
2023/08/30 11:27:40;;;;;;;0.43;0.10;;;14.80;99.90;;;;;;5045571;28;20082;-69
2023/08/30 11:30:10;;;;;;;0.50;0.50;;;14.80;99.90;;;;;;5048258;28;20033;-70
2023/08/30 11:32:37;;;;;;;0.38;0.38;;;14.80;99.90;;;;;;5048501;28;20106;-69
2023/08/30 11:35:03;;;;;;;0.20;0.20;;;14.80;99.90;;;;;;5046460;28;20817;-68
2023/08/30 11:37:29;;;;;;;1.15;1.10;;;14.80;99.90;;;;;;5042270;28;20191;-68
2023/08/30 11:39:56;;;;;;;1.45;0.70;;;14.80;99.90;;;;;;5046357;28;20154;-68
2023/08/30 11:42:21;;;;;;;0.50;0.50;;;14.80;99.90;;;;;;5043719;28;20049;-68
2023/08/30 11:44:48;;;;;;;5.22;0.52;;;14.80;99.90;;;;;;5045072;28;20059;-67
2023/08/30 11:47:24;;;;;;;0.20;0.20;;;14.70;99.90;;;;;;5046888;28;20045;-67
2023/08/30 11:49:51;;;;;;;1.30;0.50;;;14.80;99.90;;;;;;5043023;28;20136;-68
2023/08/30 11:52:18;;;;;;;7.65;0.52;;;14.80;99.90;;;;;;5048497;28;20122;-68
2023/08/30 11:54:44;;;;;;;0.25;0.10;;;14.80;99.90;;;;;;5048630;28;20088;-68
2023/08/30 11:57:09;;;;;;;1.05;0.95;;;14.90;99.90;;;;;;5036702;28;20072;-68
2023/08/30 11:59:36;;;;;;;0.00;0.00;;;14.90;99.90;;;;;;5048565;28;20083;-68
2023/08/30 12:02:02;;;;;;;0.10;0.10;;;14.90;99.90;;;;;;5047117;28;20088;-68
2023/08/30 12:04:28;;;;;;;0.30;0.30;;;15.00;99.90;;;;;;5042604;28;20080;-68
2023/08/30 12:06:54;;;;;;;0.10;0.10;;;15.00;99.90;;;;;;5027846;28;20076;-68
2023/08/30 12:09:22;;;;;;;0.57;0.30;;;15.10;99.90;;;;;;5044107;28;20045;-68
2023/08/30 12:11:48;;;;;;;0.20;0.20;;;15.20;99.90;;;;;;5044858;28;20063;-68
2023/08/30 12:14:14;;;;;;;1.25;0.52;;;15.30;99.90;;;;;;5040383;28;20091;-68
2023/08/30 12:16:40;;;;;;;0.65;0.40;;;15.40;99.90;;;;;;5042022;28;20041;-69
2023/08/30 12:19:12;;;;;;;0.40;0.38;;;15.60;99.90;;;;;;5047963;28;20140;-68
2023/08/30 12:21:47;;;;;;;0.17;0.17;;;15.60;99.90;;;;;;5046836;28;20040;-68
2023/08/30 12:24:12;;;;;;;2.03;0.70;;;15.70;99.90;;;;;;5029496;28;20046;-68
2023/08/30 12:26:38;;;;;;;0.38;0.38;;;15.80;99.90;;;;;;5033585;28;20040;-69
2023/08/30 12:29:06;;;;;;;0.38;0.38;;;15.80;99.90;;;;;;5075058;28;20387;-68
2023/08/30 12:31:32;;;;;;;0.25;0.25;;;15.80;99.90;;;;;;5045253;28;20041;-68
2023/08/30 12:33:58;;;;;;;0.30;0.30;;;15.70;99.90;;;;;;5047204;28;20389;-68
2023/08/30 12:36:24;;;;;;;0.20;0.20;;;15.60;99.90;;;;;;5043958;28;20045;-68
2023/08/30 12:38:50;;;;;;;0.40;0.40;;;15.60;99.90;;;;;;5049488;28;20045;-68
2023/08/30 12:41:16;;;;;;;1.08;0.40;;;15.60;99.90;;;;;;5044638;28;20115;-68
2023/08/30 12:43:41;;;;;;;0.65;0.30;;;15.50;99.90;;;;;;5043881;28;20463;-68
2023/08/30 12:46:07;;;;;;;0.40;0.22;;;15.40;99.90;;;;;;5045103;28;20106;-68
2023/08/30 12:48:32;;;;;;;0.10;0.10;;;15.40;99.90;;;;;;5079694;28;20156;-68
2023/08/30 12:50:58;;;;;;;0.20;0.20;;;15.40;99.90;;;;;;5047689;28;20503;-68
2023/08/30 12:53:24;;;;;;;0.22;0.22;;;15.50;99.90;;;;;;5081545;28;20052;-68
2023/08/30 12:55:49;;;;;;;1.45;0.45;;;15.50;99.90;;;;;;5044699;28;20045;-68
2023/08/30 12:58:15;;;;;;;0.10;0.10;;;15.50;99.90;;;;;;5043960;28;20037;-68